Time;durP1;ratioP1;P1;durP2;ratioP2;P2;SDS_P1;SDS_P2;PMS_P1;PMS_P2;Temp;Humidity;BMP_temperature;BMP_pressure;BME280_temperature;BME280_humidity;BME280_pressure;Samples;Min_cycle;Max_cycle;Signal;HPM_P1;HPM_P2
2021/12/01 00:01:05;;;;;;;5.90;5.33;;;;;;;2.79;91.12;99657.81;5051995;28;20227;-75
2021/12/01 00:03:31;;;;;;;4.80;4.40;;;;;;;2.55;93.19;99638.94;5057404;28;20195;-75
2021/12/01 00:05:58;;;;;;;4.13;3.70;;;;;;;2.42;96.07;99641.03;5060392;28;20206;-76
2021/12/01 00:08:25;;;;;;;4.03;3.83;;;;;;;2.38;98.14;99643.41;5053034;28;20615;-76
2021/12/01 00:10:52;;;;;;;2.53;2.33;;;;;;;2.30;98.29;99639.66;5052476;28;20192;-76
2021/12/01 00:13:21;;;;;;;5.30;4.37;;;;;;;2.16;99.88;99639.09;5056374;28;20183;-76
2021/12/01 00:15:51;;;;;;;7.20;4.37;;;;;;;2.12;100.00;99639.78;5052508;28;20191;-76
2021/12/01 00:18:17;;;;;;;7.57;5.47;;;;;;;2.10;100.00;99631.19;5051944;28;20203;-75
2021/12/01 00:20:46;;;;;;;16.60;8.77;;;;;;;1.89;100.00;99599.63;5057306;28;20215;-76
2021/12/01 00:23:12;;;;;;;4.00;3.60;;;;;;;2.17;100.00;99630.63;5065951;28;20199;-76
2021/12/01 00:25:42;;;;;;;4.17;3.83;;;;;;;2.13;99.25;99628.75;5051826;28;20202;-76
2021/12/01 00:28:09;;;;;;;5.47;4.07;;;;;;;1.81;100.00;99575.44;5051914;28;20199;-75
2021/12/01 00:30:36;;;;;;;5.03;3.87;;;;;;;2.17;100.00;99630.63;5051367;28;20207;-75
2021/12/01 00:33:04;;;;;;;5.13;4.47;;;;;;;2.25;99.01;99638.59;5052159;28;20218;-76
2021/12/01 00:35:32;;;;;;;7.57;3.07;;;;;;;2.33;97.94;99643.22;5070008;28;20202;-75
2021/12/01 00:37:59;;;;;;;4.57;4.07;;;;;;;2.21;98.09;99634.19;5071679;28;20218;-75
2021/12/01 00:40:26;;;;;;;3.97;2.90;;;;;;;2.25;97.10;99631.78;5072152;28;20194;-75
2021/12/01 00:42:54;;;;;;;8.77;4.20;;;;;;;2.35;95.88;99633.06;5053081;28;20224;-75
2021/12/01 00:45:22;;;;;;;22.97;5.87;;;;;;;2.45;94.50;99623.25;5071363;28;20272;-75
2021/12/01 00:47:50;;;;;;;15.37;7.03;;;;;;;2.45;94.09;99610.47;5060536;28;20272;-75
2021/12/01 00:50:22;;;;;;;2.77;2.57;;;;;;;2.47;93.83;99615.63;5058054;28;20218;-76
2021/12/01 00:52:49;;;;;;;3.10;2.73;;;;;;;2.54;92.22;99624.41;5067845;28;20256;-75
2021/12/01 00:55:16;;;;;;;2.97;2.77;;;;;;;2.49;91.90;99617.44;5070223;28;20195;-76
2021/12/01 00:57:43;;;;;;;3.57;2.47;;;;;;;2.42;93.20;99600.09;5054427;28;20200;-75
2021/12/01 01:00:11;;;;;;;3.30;3.10;;;;;;;2.46;92.34;99599.38;5070423;28;20223;-75
2021/12/01 01:02:38;;;;;;;3.07;2.77;;;;;;;2.41;91.79;99582.13;5062938;28;20552;-75
2021/12/01 01:05:06;;;;;;;5.40;3.80;;;;;;;2.43;91.49;99588.16;5068372;28;20194;-76
2021/12/01 01:07:35;;;;;;;22.17;9.77;;;;;;;2.55;90.20;99582.66;5056574;28;20200;-76
2021/12/01 01:10:15;;;;;;;27.83;10.93;;;;;;;2.74;86.67;99574.88;5051432;28;20219;-76
2021/12/01 01:18:11;;;;;;;11.67;7.17;;;;;;;2.56;85.89;99569.06;5071006;28;20197;-75
2021/12/01 01:20:38;;;;;;;3.30;2.97;;;;;;;2.59;86.20;99576.84;5069380;28;20234;-75
2021/12/01 01:23:06;;;;;;;5.43;3.27;;;;;;;2.62;86.26;99575.28;5059607;28;20191;-77
2021/12/01 01:25:33;;;;;;;2.80;2.60;;;;;;;2.76;84.69;99569.00;5069494;28;20206;-76
2021/12/01 01:28:00;;;;;;;3.00;2.80;;;;;;;2.74;84.36;99562.97;5059732;28;20214;-76
2021/12/01 01:30:27;;;;;;;2.87;2.63;;;;;;;2.82;84.44;99553.84;5054374;28;20226;-76
2021/12/01 01:32:54;;;;;;;3.97;3.53;;;;;;;2.83;83.28;99562.41;5063660;28;20195;-76
2021/12/01 01:35:21;;;;;;;2.97;2.77;;;;;;;2.83;83.91;99552.16;5073672;28;20199;-76
2021/12/01 01:37:48;;;;;;;4.00;3.40;;;;;;;2.83;84.43;99545.38;5074866;28;20199;-75
2021/12/01 01:40:17;;;;;;;2.70;2.50;;;;;;;2.87;82.84;99528.44;5075119;28;20194;-75
2021/12/01 01:42:44;;;;;;;2.73;2.27;;;;;;;2.95;84.08;99550.06;5074959;28;20198;-76
2021/12/01 01:45:11;;;;;;;1.97;1.83;;;;;;;2.91;83.69;99541.41;5057587;28;20694;-75
2021/12/01 01:47:48;;;;;;;4.10;2.13;;;;;;;2.97;83.31;99551.84;5056130;28;20199;-76
2021/12/01 01:50:26;;;;;;;4.83;3.17;;;;;;;2.88;83.59;99530.19;5054621;28;20226;-76
2021/12/01 01:52:52;;;;;;;4.27;2.67;;;;;;;2.98;82.02;99545.06;5061044;28;20250;-76
2021/12/01 01:55:21;;;;;;;2.67;2.47;;;;;;;3.05;81.42;99536.78;5056713;28;20616;-75
2021/12/01 01:57:48;;;;;;;4.33;3.97;;;;;;;3.03;81.25;99530.75;5054459;28;20612;-75
2021/12/01 02:00:15;;;;;;;2.87;2.67;;;;;;;3.13;80.72;99524.25;5053803;28;20230;-76
2021/12/01 02:02:44;;;;;;;2.40;2.20;;;;;;;3.13;78.49;99535.38;5070283;28;20195;-77
2021/12/01 02:05:11;;;;;;;2.40;1.97;;;;;;;3.48;72.57;99504.16;5058282;28;20289;-76
2021/12/01 02:07:38;;;;;;;2.33;2.23;;;;;;;3.53;74.21;99554.69;5055367;28;20192;-76
2021/12/01 02:10:06;;;;;;;2.30;2.20;;;;;;;3.01;76.28;99486.28;5054328;28;20748;-76
2021/12/01 02:12:34;;;;;;;2.13;2.03;;;;;;;3.46;73.83;99520.28;5054389;28;20674;-76
2021/12/01 02:15:01;;;;;;;1.63;1.63;;;;;;;3.64;71.65;99540.53;5071787;28;20642;-75
2021/12/01 02:17:28;;;;;;;2.77;2.57;;;;;;;3.69;70.75;99539.00;5071713;28;20202;-76
2021/12/01 02:19:56;;;;;;;3.60;2.70;;;;;;;3.85;68.84;99528.44;5072684;28;20241;-76
2021/12/01 02:22:25;;;;;;;1.80;1.70;;;;;;;3.69;68.28;99495.41;5067720;28;20187;-76
2021/12/01 02:24:51;;;;;;;3.83;2.60;;;;;;;3.72;71.89;99526.25;5066759;28;20191;-76
2021/12/01 02:27:18;;;;;;;2.40;2.23;;;;;;;3.63;73.52;99543.91;5072305;28;20190;-76
2021/12/01 02:29:45;;;;;;;2.10;1.83;;;;;;;3.52;76.50;99532.44;5073934;28;20234;-76
2021/12/01 02:32:12;;;;;;;2.10;2.00;;;;;;;3.33;78.84;99536.94;5072983;28;20186;-76
2021/12/01 02:34:41;;;;;;;1.90;1.80;;;;;;;3.35;79.99;99542.97;5062044;28;20199;-76
2021/12/01 02:37:08;;;;;;;31.00;11.03;;;;;;;3.32;79.88;99532.59;5053806;28;20203;-75
2021/12/01 02:39:38;;;;;;;11.47;5.83;;;;;;;3.36;79.43;99541.28;5053655;28;20199;-75
2021/12/01 02:42:07;;;;;;;10.63;6.67;;;;;;;3.33;78.81;99552.28;5065353;28;20199;-77
2021/12/01 02:44:35;;;;;;;4.63;4.00;;;;;;;3.39;76.58;99508.94;5061691;28;20739;-76
2021/12/01 02:47:04;;;;;;;7.63;4.27;;;;;;;3.64;74.32;99543.09;5065691;28;20218;-76
2021/12/01 02:49:30;;;;;;;2.13;2.03;;;;;;;3.71;73.20;99540.78;5054049;28;20735;-76
2021/12/01 02:51:58;;;;;;;2.07;1.97;;;;;;;3.99;68.83;99537.44;5053554;28;20203;-75
2021/12/01 02:54:25;;;;;;;8.23;5.33;;;;;;;4.24;64.65;99547.66;5056189;28;20630;-75
2021/12/01 02:56:55;;;;;;;8.27;4.70;;;;;;;4.52;61.42;99541.66;5054508;28;20199;-76
2021/12/01 02:59:22;;;;;;;4.93;4.00;;;;;;;4.49;62.06;99555.25;5053295;28;20612;-76
2021/12/01 03:01:50;;;;;;;3.00;2.40;;;;;;;4.61;60.70;99543.63;5053611;28;20226;-76
2021/12/01 03:04:17;;;;;;;2.40;2.20;;;;;;;5.02;57.39;99537.13;5064699;28;20674;-76
2021/12/01 03:06:45;;;;;;;2.20;2.00;;;;;;;5.11;56.09;99525.41;5058040;28;20200;-76
2021/12/01 03:09:14;;;;;;;1.63;1.53;;;;;;;5.18;55.97;99536.72;5072499;28;20246;-75
2021/12/01 03:11:41;;;;;;;1.53;1.47;;;;;;;5.19;56.91;99534.19;5073358;28;20235;-76
2021/12/01 03:14:11;;;;;;;3.47;1.57;;;;;;;5.09;57.57;99552.75;5065496;28;20262;-76
2021/12/01 03:16:38;;;;;;;2.23;1.23;;;;;;;5.17;56.69;99548.72;5053636;28;20199;-76
2021/12/01 03:19:05;;;;;;;1.63;1.53;;;;;;;5.07;57.75;99527.81;5072977;28;20191;-76
2021/12/01 03:21:35;;;;;;;1.33;1.23;;;;;;;5.10;56.55;99551.06;5073235;28;20195;-77
2021/12/01 03:24:01;;;;;;;1.10;1.10;;;;;;;5.19;56.81;99561.59;5073082;28;20199;-76
2021/12/01 03:26:29;;;;;;;1.63;1.53;;;;;;;5.20;57.37;99546.22;5073068;28;20195;-76
2021/12/01 03:28:56;;;;;;;1.80;1.30;;;;;;;5.11;58.00;99543.38;5054966;28;20226;-77
2021/12/01 03:31:24;;;;;;;1.80;1.70;;;;;;;5.12;58.32;99563.13;5052525;28;20199;-77
2021/12/01 03:33:51;;;;;;;1.20;1.20;;;;;;;5.11;58.13;99565.63;5052798;28;20598;-77
2021/12/01 03:36:18;;;;;;;1.87;1.67;;;;;;;5.07;58.09;99566.38;5053059;28;20196;-75
2021/12/01 03:38:45;;;;;;;1.80;1.70;;;;;;;4.69;58.09;99498.50;5069040;28;20210;-76
2021/12/01 03:41:12;;;;;;;2.50;2.17;;;;;;;4.89;58.34;99517.91;5055156;28;20200;-76
2021/12/01 03:43:38;;;;;;;1.80;1.70;;;;;;;5.07;58.70;99536.41;5053369;28;20196;-76
2021/12/01 03:46:05;;;;;;;1.60;1.60;;;;;;;5.03;58.94;99559.44;5054446;28;20191;-76
2021/12/01 03:48:34;;;;;;;1.70;1.60;;;;;;;4.85;59.95;99516.13;5066856;28;20202;-76
2021/12/01 03:51:01;;;;;;;1.60;1.60;;;;;;;4.93;60.91;99546.31;5068282;28;20218;-76
2021/12/01 03:53:27;;;;;;;1.50;1.40;;;;;;;4.97;60.69;99542.13;5051698;28;20198;-76
2021/12/01 03:55:54;;;;;;;1.30;1.30;;;;;;;4.93;61.37;99540.28;5052664;28;20191;-77
2021/12/01 03:58:21;;;;;;;1.60;1.50;;;;;;;4.72;61.87;99503.72;5070234;28;20186;-76
2021/12/01 04:00:48;;;;;;;1.20;1.20;;;;;;;4.83;62.74;99544.31;5063937;28;20219;-76
2021/12/01 04:03:15;;;;;;;2.80;2.30;;;;;;;4.75;62.94;99529.47;5062912;28;20198;-76
2021/12/01 04:05:43;;;;;;;2.10;1.90;;;;;;;4.89;61.98;99502.50;5062082;28;20199;-76
2021/12/01 04:08:11;;;;;;;3.90;2.90;;;;;;;4.83;62.64;99526.31;5062741;28;20195;-77
2021/12/01 04:10:37;;;;;;;4.37;3.57;;;;;;;4.64;62.68;99511.19;5069781;28;20218;-77
2021/12/01 04:13:04;;;;;;;1.87;1.77;;;;;;;4.78;63.45;99525.31;5070540;28;20191;-78
2021/12/01 04:15:31;;;;;;;2.33;2.23;;;;;;;4.82;62.92;99522.00;5067768;28;20600;-76
2021/12/01 04:17:58;;;;;;;2.23;2.13;;;;;;;4.60;63.08;99483.72;5063012;28;20200;-77
2021/12/01 04:20:25;;;;;;;1.73;1.63;;;;;;;4.90;62.86;99527.38;5052302;28;20289;-76
2021/12/01 04:22:53;;;;;;;2.30;2.10;;;;;;;4.92;62.82;99510.31;5065844;28;20195;-77
2021/12/01 04:25:21;;;;;;;2.87;2.67;;;;;;;5.13;61.91;99538.28;5069966;28;20194;-77
2021/12/01 04:27:48;;;;;;;3.83;2.10;;;;;;;4.67;61.77;99459.09;5062446;28;20195;-77
2021/12/01 04:30:18;;;;;;;6.50;4.63;;;;;;;5.19;62.46;99529.06;5068048;28;20221;-77
2021/12/01 04:32:44;;;;;;;3.73;3.33;;;;;;;5.21;63.25;99524.81;5069974;28;20677;-77
2021/12/01 04:35:13;;;;;;;2.57;2.37;;;;;;;5.28;64.24;99542.13;5063494;28;20577;-77
2021/12/01 04:37:40;;;;;;;2.47;2.37;;;;;;;5.07;63.70;99507.28;5071782;28;20187;-77
2021/12/01 04:40:09;;;;;;;7.90;4.23;;;;;;;5.42;63.57;99556.22;5071622;28;20195;-76
2021/12/01 04:42:36;;;;;;;2.93;2.77;;;;;;;5.37;65.48;99531.25;5057773;28;20658;-76
2021/12/01 04:45:06;;;;;;;3.30;3.00;;;;;;;5.28;66.65;99554.97;5052963;28;20203;-78
2021/12/01 04:47:37;;;;;;;4.10;3.50;;;;;;;5.20;66.94;99571.91;5059970;28;20190;-77
2021/12/01 04:50:05;;;;;;;3.63;3.23;;;;;;;5.25;69.38;99567.75;5063668;28;20223;-77
2021/12/01 04:52:32;;;;;;;4.03;2.97;;;;;;;5.30;70.15;99563.63;5052880;28;20245;-77
2021/12/01 04:54:59;;;;;;;5.07;2.77;;;;;;;5.10;70.38;99518.50;5056396;28;20248;-77
2021/12/01 04:57:27;;;;;;;9.10;3.97;;;;;;;5.26;71.84;99546.38;5058589;28;20191;-77
2021/12/01 04:59:54;;;;;;;15.60;6.03;;;;;;;5.20;71.98;99556.50;5059034;28;20732;-77
2021/12/01 05:02:21;;;;;;;2.17;2.07;;;;;;;5.16;73.86;99554.66;5060727;28;20206;-76
2021/12/01 05:04:48;;;;;;;2.43;2.17;;;;;;;5.16;74.63;99549.53;5062238;28;20610;-76
2021/12/01 05:07:15;;;;;;;3.53;3.23;;;;;;;5.09;74.46;99542.47;5056898;28;20216;-76
2021/12/01 05:09:42;;;;;;;3.60;3.30;;;;;;;5.14;75.03;99540.00;5071025;28;20770;-75
2021/12/01 05:12:10;;;;;;;4.63;3.07;;;;;;;5.26;74.38;99525.81;5069770;28;20281;-76
2021/12/01 05:14:39;;;;;;;1.97;1.87;;;;;;;5.17;74.45;99510.16;5064682;28;20199;-76
2021/12/01 05:17:07;;;;;;;3.97;3.57;;;;;;;5.22;74.56;99518.84;5053796;28;20187;-76
2021/12/01 05:19:34;;;;;;;7.03;4.83;;;;;;;5.24;75.53;99514.63;5070311;28;20206;-76
2021/12/01 05:22:02;;;;;;;7.37;4.37;;;;;;;5.24;75.15;99529.19;5068680;28;20197;-76
2021/12/01 05:24:28;;;;;;;2.03;1.87;;;;;;;5.29;75.77;99525.03;5067334;28;20244;-76
2021/12/01 05:26:55;;;;;;;2.53;2.07;;;;;;;5.32;75.88;99507.09;5051272;28;20705;-77
2021/12/01 05:29:23;;;;;;;8.63;2.30;;;;;;;5.29;76.20;99504.47;5055145;28;20198;-77
2021/12/01 05:31:52;;;;;;;2.07;1.87;;;;;;;4.96;75.83;99458.19;5060479;28;20224;-75
2021/12/01 05:34:19;;;;;;;1.90;1.60;;;;;;;5.21;77.20;99511.97;5054317;28;20696;-78
2021/12/01 05:36:46;;;;;;;1.90;1.77;;;;;;;5.24;76.01;99506.06;5054957;28;20227;-76
2021/12/01 05:39:13;;;;;;;1.23;1.23;;;;;;;5.27;76.65;99537.84;5051645;28;20670;-79
2021/12/01 05:41:40;;;;;;;1.50;1.40;;;;;;;5.21;76.29;99547.94;5053022;28;20202;-79
2021/12/01 05:44:07;;;;;;;23.07;9.73;;;;;;;5.11;77.38;99556.22;5052197;28;20207;-77
2021/12/01 05:46:34;;;;;;;29.27;9.40;;;;;;;4.92;77.46;99553.97;5062502;28;20187;-79
2021/12/01 05:49:03;;;;;;;26.27;12.97;;;;;;;4.98;80.75;99552.44;5071196;28;20560;-76
2021/12/01 05:51:30;;;;;;;8.83;6.20;;;;;;;5.03;78.72;99549.16;5071241;28;20226;-79
2021/12/01 05:53:57;;;;;;;3.20;2.90;;;;;;;5.07;76.93;99559.53;5071493;28;20199;-78
2021/12/01 05:56:24;;;;;;;3.27;2.87;;;;;;;5.09;78.12;99570.75;5060014;28;20584;-78
2021/12/01 05:58:51;;;;;;;4.30;2.17;;;;;;;5.10;78.82;99569.88;5070983;28;20199;-77
2021/12/01 06:01:18;;;;;;;2.97;2.07;;;;;;;5.21;77.90;99578.78;5059308;28;20210;-76
2021/12/01 06:03:45;;;;;;;7.93;2.50;;;;;;;5.15;79.46;99552.91;5069114;28;20568;-78
2021/12/01 06:06:13;;;;;;;2.90;2.33;;;;;;;5.30;77.40;99581.63;5054777;28;20576;-81
2021/12/01 06:08:39;;;;;;;2.07;1.80;;;;;;;5.35;78.53;99585.16;5067287;28;20187;-79
2021/12/01 06:11:06;;;;;;;6.67;2.40;;;;;;;5.30;79.28;99584.19;5060408;28;20234;-80
2021/12/01 06:13:33;;;;;;;2.50;2.30;;;;;;;5.26;80.01;99587.50;5070849;28;20226;-80
2021/12/01 06:16:00;;;;;;;4.93;4.33;;;;;;;5.30;81.99;99589.31;5073069;28;20210;-80
2021/12/01 06:18:29;;;;;;;3.30;2.47;;;;;;;5.24;80.45;99589.16;5071160;28;20204;-80
2021/12/01 06:20:56;;;;;;;2.53;2.33;;;;;;;5.14;82.00;99593.97;5065525;28;20604;-80
2021/12/01 06:23:25;;;;;;;9.00;3.27;;;;;;;5.03;83.69;99598.81;5057775;28;20227;-80
2021/12/01 06:25:51;;;;;;;3.93;2.97;;;;;;;5.00;84.63;99603.84;5055730;28;20634;-77
2021/12/01 06:28:18;;;;;;;3.33;2.27;;;;;;;4.99;85.20;99594.44;5059922;28;20249;-79
2021/12/01 06:30:45;;;;;;;3.83;2.90;;;;;;;4.94;86.53;99603.69;5062677;28;20219;-80
2021/12/01 06:33:12;;;;;;;6.67;2.50;;;;;;;4.74;90.63;99545.75;5074576;28;20198;-79
2021/12/01 06:35:39;;;;;;;2.20;1.83;;;;;;;5.01;88.52;99597.91;5074972;28;20688;-79
2021/12/01 06:38:06;;;;;;;4.03;3.60;;;;;;;5.01;87.67;99605.59;5067992;28;20210;-80
2021/12/01 06:40:34;;;;;;;11.63;4.53;;;;;;;5.10;89.29;99598.16;5071495;28;20210;-81
2021/12/01 06:43:01;;;;;;;5.77;3.30;;;;;;;4.62;88.49;99524.81;5072992;28;20759;-79
2021/12/01 06:45:28;;;;;;;1.83;1.73;;;;;;;4.96;89.79;99592.63;5068598;28;20198;-81
2021/12/01 06:47:55;;;;;;;3.57;2.47;;;;;;;5.10;91.21;99631.56;5064662;28;20222;-80
2021/12/01 06:50:23;;;;;;;4.00;2.70;;;;;;;5.13;91.85;99623.97;5061192;28;20226;-80
2021/12/01 06:52:49;;;;;;;2.10;1.57;;;;;;;5.19;92.95;99636.97;5055934;28;20743;-79
2021/12/01 06:55:16;;;;;;;6.17;3.87;;;;;;;4.82;93.88;99577.63;5054511;28;20199;-80
2021/12/01 06:57:44;;;;;;;10.43;3.40;;;;;;;5.23;94.62;99637.94;5058055;28;20200;-80
2021/12/01 07:00:14;;;;;;;9.30;4.43;;;;;;;5.28;94.93;99637.22;5054520;28;20224;-80
2021/12/01 07:02:41;;;;;;;13.30;4.50;;;;;;;5.31;95.85;99633.91;5054347;28;20199;-79
2021/12/01 07:05:09;;;;;;;11.37;4.93;;;;;;;5.31;96.57;99636.47;5055658;28;20202;-78
2021/12/01 07:07:36;;;;;;;9.40;4.53;;;;;;;5.40;97.85;99631.56;5056357;28;20565;-79
2021/12/01 07:10:04;;;;;;;26.27;9.57;;;;;;;5.41;97.55;99631.63;5055599;28;20199;-79
2021/12/01 07:12:31;;;;;;;4.30;2.80;;;;;;;5.56;98.25;99630.31;5055812;28;20196;-79
2021/12/01 07:14:59;;;;;;;3.77;2.87;;;;;;;5.65;99.84;99630.53;5056098;28;20567;-80
2021/12/01 07:17:26;;;;;;;5.27;3.23;;;;;;;5.69;99.24;99627.22;5059638;28;20206;-81
2021/12/01 07:19:52;;;;;;;2.17;1.83;;;;;;;5.62;99.35;99622.75;5055057;28;20310;-80
2021/12/01 07:22:19;;;;;;;3.73;2.00;;;;;;;5.24;99.79;99554.88;5055086;28;20713;-80
2021/12/01 07:24:46;;;;;;;2.57;2.40;;;;;;;5.72;99.42;99629.88;5057625;28;20203;-81
2021/12/01 07:27:14;;;;;;;7.33;3.73;;;;;;;5.76;99.14;99629.13;5063600;28;20195;-80
2021/12/01 07:29:42;;;;;;;2.77;2.57;;;;;;;5.78;98.18;99609.50;5076437;28;20612;-79
2021/12/01 07:32:11;;;;;;;3.43;2.87;;;;;;;6.01;96.34;99628.97;5070010;28;20218;-80
2021/12/01 07:34:42;;;;;;;3.47;2.43;;;;;;;6.14;95.23;99625.00;5060908;28;20200;-81
2021/12/01 07:37:10;;;;;;;6.50;3.10;;;;;;;6.26;94.64;99623.63;5058443;28;20757;-79
2021/12/01 07:39:37;;;;;;;1.73;1.63;;;;;;;6.31;93.90;99637.44;5067165;28;20241;-79
2021/12/01 07:42:06;;;;;;;11.77;3.67;;;;;;;6.27;94.32;99637.38;5079201;28;20571;-81
2021/12/01 07:44:33;;;;;;;4.60;2.37;;;;;;;6.18;95.33;99630.28;5078614;28;20202;-82
2021/12/01 07:47:00;;;;;;;5.60;3.60;;;;;;;6.24;95.52;99632.97;5065152;28;20690;-82
2021/12/01 07:49:28;;;;;;;11.30;4.00;;;;;;;6.23;95.64;99640.69;5065985;28;20203;-80
2021/12/01 07:51:55;;;;;;;6.73;2.57;;;;;;;6.18;95.71;99627.69;5059152;28;20222;-80
2021/12/01 07:54:22;;;;;;;3.37;1.63;;;;;;;6.43;96.31;99649.75;5056230;28;20202;-82
2021/12/01 07:56:48;;;;;;;12.37;2.80;;;;;;;6.51;94.98;99667.97;5053222;28;20191;-83
2021/12/01 07:59:16;;;;;;;1.60;1.50;;;;;;;6.52;95.76;99685.19;5052742;28;20266;-80
2021/12/01 08:01:43;;;;;;;2.53;2.00;;;;;;;6.58;95.15;99690.47;5059657;28;20246;-81
2021/12/01 08:04:10;;;;;;;2.77;2.57;;;;;;;6.21;93.36;99604.59;5053226;28;20252;-81
2021/12/01 08:06:40;;;;;;;5.90;2.33;;;;;;;6.73;93.95;99685.69;5060783;28;20195;-82
2021/12/01 08:09:08;;;;;;;7.10;2.43;;;;;;;6.80;93.33;99692.72;5062573;28;20234;-81
2021/12/01 08:11:35;;;;;;;2.70;2.50;;;;;;;6.88;93.10;99697.22;5061018;28;20223;-82
2021/12/01 08:14:02;;;;;;;1.67;1.57;;;;;;;6.97;92.42;99686.25;5063651;28;20195;-80
2021/12/01 08:16:29;;;;;;;2.30;2.10;;;;;;;7.00;92.12;99678.59;5054444;28;20199;-80
2021/12/01 08:18:56;;;;;;;3.07;2.77;;;;;;;6.82;92.74;99636.94;5060004;28;20198;-80
2021/12/01 08:21:23;;;;;;;2.30;2.20;;;;;;;7.19;91.86;99693.66;5059953;28;20666;-81
2021/12/01 08:23:52;;;;;;;3.80;3.10;;;;;;;6.92;91.31;99641.50;5053306;28;20196;-80
2021/12/01 08:26:19;;;;;;;2.40;2.20;;;;;;;7.27;90.89;99692.13;5066328;28;20604;-80
2021/12/01 08:28:46;;;;;;;4.77;1.83;;;;;;;7.35;90.10;99695.69;5071980;28;20596;-79
2021/12/01 08:31:14;;;;;;;2.30;2.00;;;;;;;7.46;89.10;99688.19;5071180;28;20261;-82
2021/12/01 08:33:41;;;;;;;4.00;2.17;;;;;;;7.57;86.71;99670.34;5057756;28;20200;-81
2021/12/01 08:36:09;;;;;;;1.47;1.47;;;;;;;7.87;85.44;99694.19;5052314;28;20214;-80
2021/12/01 08:38:37;;;;;;;3.33;3.03;;;;;;;8.09;84.21;99680.88;5065326;28;20191;-79
2021/12/01 08:41:06;;;;;;;6.77;2.10;;;;;;;8.16;82.25;99680.13;5053045;28;20192;-80
2021/12/01 08:43:33;;;;;;;2.10;2.00;;;;;;;8.26;82.48;99674.28;5052656;28;20211;-79
2021/12/01 08:46:00;;;;;;;1.80;1.63;;;;;;;8.22;82.67;99669.91;5052219;28;20290;-77
2021/12/01 08:48:27;;;;;;;4.53;3.80;;;;;;;8.13;82.91;99658.56;5053280;28;20670;-79
2021/12/01 08:50:56;;;;;;;3.90;2.33;;;;;;;8.13;82.47;99667.16;5058930;28;20218;-82
2021/12/01 08:53:23;;;;;;;3.00;1.57;;;;;;;8.12;83.83;99665.41;5071421;28;20197;-80
2021/12/01 08:55:51;;;;;;;13.20;3.23;;;;;;;8.14;85.17;99671.47;5072811;28;20195;-79
2021/12/01 08:58:19;;;;;;;6.37;3.73;;;;;;;8.16;84.52;99668.94;5072230;28;20627;-78
2021/12/01 09:00:48;;;;;;;2.87;1.93;;;;;;;8.17;83.99;99671.53;5069200;28;21111;-77
2021/12/01 09:03:16;;;;;;;15.13;4.60;;;;;;;8.24;84.66;99678.53;5054940;28;20191;-81
2021/12/01 09:05:44;;;;;;;1.73;1.63;;;;;;;8.26;85.21;99682.03;5062816;28;20742;-79
2021/12/01 09:08:11;;;;;;;3.57;2.77;;;;;;;8.32;87.27;99692.50;5072309;28;20198;-80
2021/12/01 09:10:38;;;;;;;2.63;2.00;;;;;;;8.37;86.30;99683.13;5055122;28;20198;-79
2021/12/01 09:13:06;;;;;;;4.17;2.63;;;;;;;8.30;85.93;99663.19;5058486;28;20380;-78
2021/12/01 09:15:36;;;;;;;4.83;2.50;;;;;;;8.54;83.74;99678.22;5060848;28;20191;-79
2021/12/01 09:18:03;;;;;;;1.97;1.83;;;;;;;8.56;84.44;99680.84;5052545;28;20202;-78
2021/12/01 09:20:30;;;;;;;6.13;2.47;;;;;;;8.56;83.75;99639.50;5051102;28;20656;-79
2021/12/01 09:22:57;;;;;;;2.93;2.37;;;;;;;8.89;84.25;99694.28;5051798;28;20199;-79
2021/12/01 09:25:24;;;;;;;3.90;3.00;;;;;;;8.93;84.34;99694.38;5060081;28;20570;-81
2021/12/01 09:27:51;;;;;;;3.93;2.70;;;;;;;8.90;83.01;99676.22;5067258;28;20254;-79
2021/12/01 09:30:19;;;;;;;4.57;2.33;;;;;;;8.63;81.44;99633.59;5063661;28;20194;-78
2021/12/01 09:32:47;;;;;;;2.67;2.47;;;;;;;8.93;80.62;99677.97;5054412;28;20230;-77
2021/12/01 09:35:15;;;;;;;2.90;2.37;;;;;;;9.05;83.02;99691.09;5059744;28;20194;-78
2021/12/01 09:37:43;;;;;;;3.87;1.90;;;;;;;9.02;80.84;99683.31;5071352;28;20202;-80
2021/12/01 09:40:13;;;;;;;1.87;1.67;;;;;;;9.03;81.90;99666.91;5069431;28;20269;-78
2021/12/01 09:42:42;;;;;;;13.77;2.60;;;;;;;9.10;82.56;99685.97;5071185;28;20237;-79
2021/12/01 09:45:10;;;;;;;4.70;2.77;;;;;;;9.13;82.79;99673.97;5069209;28;20203;-79
2021/12/01 09:47:37;;;;;;;1.70;1.53;;;;;;;9.12;82.75;99680.00;5064332;28;20258;-75
2021/12/01 09:50:07;;;;;;;9.70;3.27;;;;;;;9.21;85.03;99677.53;5072460;28;20205;-77
2021/12/01 09:52:34;;;;;;;7.90;4.40;;;;;;;9.21;84.50;99666.31;5063853;28;20223;-79
2021/12/01 09:55:01;;;;;;;7.57;3.93;;;;;;;9.29;85.49;99673.34;5055011;28;20199;-75
2021/12/01 09:57:28;;;;;;;2.43;2.23;;;;;;;9.27;82.07;99669.88;5055542;28;20198;-76
2021/12/01 09:59:55;;;;;;;3.97;2.33;;;;;;;9.31;81.30;99686.31;5054674;28;20611;-78
2021/12/01 10:02:24;;;;;;;2.00;1.80;;;;;;;9.33;82.30;99675.13;5062694;28;20191;-78
2021/12/01 10:04:51;;;;;;;3.03;2.10;;;;;;;9.33;84.78;99680.28;5074484;28;20599;-77
2021/12/01 10:07:22;;;;;;;6.73;1.70;;;;;;;9.23;83.48;99668.09;5074936;28;20263;-79
2021/12/01 10:09:52;;;;;;;2.97;2.03;;;;;;;9.21;83.99;99669.78;5061934;28;20282;-79
2021/12/01 10:12:20;;;;;;;4.63;3.47;;;;;;;9.10;84.76;99655.81;5054794;28;20646;-78
2021/12/01 10:14:51;;;;;;;4.30;3.90;;;;;;;9.31;85.13;99676.81;5072487;28;20194;-78
2021/12/01 10:17:32;;;;;;;6.57;3.10;;;;;;;9.37;84.97;99674.31;5075167;28;20568;-79
2021/12/01 10:20:11;;;;;;;2.73;2.03;;;;;;;9.36;85.30;99669.97;5064720;28;20647;-77
2021/12/01 10:22:39;;;;;;;1.60;1.50;;;;;;;9.39;84.81;99670.00;5059355;28;20182;-74
2021/12/01 10:25:29;;;;;;;4.23;3.30;;;;;;;9.52;84.48;99673.66;5064743;28;20199;-78
2021/12/01 10:27:56;;;;;;;1.70;1.60;;;;;;;9.44;83.19;99663.19;5055690;28;20184;-75
2021/12/01 10:30:36;;;;;;;2.10;1.90;;;;;;;9.48;83.39;99679.63;5054351;28;20203;-75
2021/12/01 10:33:08;;;;;;;5.07;2.00;;;;;;;9.54;84.96;99673.66;5054600;28;20284;-76
2021/12/01 10:35:35;;;;;;;1.90;1.80;;;;;;;9.49;84.82;99668.41;5054336;28;20226;-77
2021/12/01 10:38:04;;;;;;;8.50;3.33;;;;;;;9.38;85.01;99647.56;5055473;28;20207;-75
2021/12/01 10:40:31;;;;;;;4.93;2.53;;;;;;;9.54;86.40;99664.16;5065458;28;20256;-76
2021/12/01 10:43:00;;;;;;;5.70;4.00;;;;;;;9.61;87.04;99659.94;5074139;28;20195;-76
2021/12/01 10:45:28;;;;;;;7.37;2.47;;;;;;;9.48;87.01;99639.94;5072416;28;20273;-75
2021/12/01 10:47:57;;;;;;;4.87;3.67;;;;;;;9.57;86.93;99664.19;5067844;28;20675;-78
2021/12/01 10:50:27;;;;;;;6.13;4.20;;;;;;;9.63;87.68;99664.25;5064670;28;20193;-77
2021/12/01 10:53:01;;;;;;;7.17;2.40;;;;;;;9.65;86.98;99678.09;5058923;28;20272;-76
2021/12/01 10:55:30;;;;;;;3.40;2.20;;;;;;;9.68;86.27;99672.97;5057572;28;20198;-77
2021/12/01 10:57:59;;;;;;;23.60;1.65;;;;;;;9.65;86.65;99666.88;5059666;28;20593;-77
2021/12/01 11:00:29;;;;;;;6.15;5.07;;;;;;;9.72;87.35;99674.75;5061747;28;20219;-76
2021/12/01 11:03:05;;;;;;;2.13;2.03;;;;;;;9.75;86.83;99658.38;5061470;28;20644;-76
2021/12/01 11:05:34;;;;;;;2.87;2.17;;;;;;;9.83;85.56;99667.09;5054944;28;20207;-76
2021/12/01 11:08:12;;;;;;;2.45;1.70;;;;;;;9.86;84.93;99661.94;5069660;28;20195;-76
2021/12/01 11:10:41;;;;;;;1.42;1.42;;;;;;;9.88;84.63;99649.91;5073807;28;20202;-75
2021/12/01 11:13:08;;;;;;;7.78;1.80;;;;;;;9.89;84.34;99657.69;5067233;28;20227;-75
2021/12/01 11:15:37;;;;;;;3.10;1.60;;;;;;;9.92;83.84;99660.28;5067490;28;20210;-75
2021/12/01 11:18:06;;;;;;;2.17;2.07;;;;;;;9.95;84.91;99652.56;5070505;28;20206;-77
2021/12/01 11:20:40;;;;;;;2.20;2.00;;;;;;;10.07;84.64;99646.63;5072171;28;20211;-75
2021/12/01 11:23:15;;;;;;;2.20;1.50;;;;;;;10.09;83.90;99662.22;5055990;28;20286;-76
2021/12/01 11:25:46;;;;;;;4.10;2.00;;;;;;;10.11;83.75;99653.59;5053325;28;20199;-75
2021/12/01 11:28:15;;;;;;;2.88;2.55;;;;;;;10.09;82.66;99644.06;5068341;28;20191;-76
2021/12/01 11:30:44;;;;;;;5.13;2.22;;;;;;;10.06;81.29;99644.88;5072849;28;20194;-75
2021/12/01 11:33:13;;;;;;;1.87;1.77;;;;;;;10.14;81.21;99653.66;5073143;28;20302;-76
2021/12/01 11:35:41;;;;;;;2.58;1.70;;;;;;;10.17;81.77;99648.50;5073637;28;20222;-75
2021/12/01 11:38:10;;;;;;;5.80;2.50;;;;;;;10.21;81.25;99649.38;5069226;28;20733;-75
2021/12/01 11:40:37;;;;;;;7.20;1.83;;;;;;;10.13;80.95;99646.69;5058876;28;20191;-76
2021/12/01 11:43:08;;;;;;;3.45;2.47;;;;;;;10.23;81.45;99652.88;5060579;28;20196;-74
2021/12/01 11:45:36;;;;;;;4.50;2.38;;;;;;;9.97;79.85;99603.38;5054869;28;20210;-76
2021/12/01 11:48:04;;;;;;;10.15;3.42;;;;;;;10.29;80.21;99658.97;5062300;28;20195;-75
2021/12/01 11:50:33;;;;;;;3.13;2.00;;;;;;;10.25;79.80;99648.56;5060547;28;20195;-76